createdAt,value
2017-11-17T00:00:44.308Z,0.00
2017-11-17T00:02:37.124Z,0.00
2017-11-17T00:03:37.039Z,0.00
2017-11-17T00:05:30.310Z,0.00
2017-11-17T00:06:30.242Z,0.00
2017-11-17T00:08:23.572Z,0.00
2017-11-17T00:09:23.488Z,0.00
2017-11-17T00:11:16.763Z,0.00
2017-11-17T00:12:16.688Z,0.00
2017-11-17T00:14:09.550Z,0.00
2017-11-17T00:15:09.526Z,0.00
2017-11-17T00:17:02.718Z,0.00
2017-11-17T00:18:02.633Z,0.00
2017-11-17T00:19:55.892Z,0.00
2017-11-17T00:20:55.822Z,0.00
2017-11-17T00:22:49.106Z,0.00
2017-11-17T00:23:49.018Z,0.00
2017-11-17T00:25:42.280Z,0.00
2017-11-17T00:26:42.218Z,0.00
2017-11-17T00:28:35.489Z,0.00
2017-11-17T00:29:35.392Z,0.00
2017-11-17T00:31:28.653Z,0.00
2017-11-17T00:32:28.586Z,0.00
2017-11-17T00:34:21.868Z,0.00
2017-11-17T00:35:21.777Z,0.00
2017-11-17T00:37:15.056Z,0.00
2017-11-17T00:38:14.970Z,0.00
2017-11-17T00:40:08.230Z,0.00
2017-11-17T00:41:08.162Z,0.00
2017-11-17T00:43:01.430Z,0.00
2017-11-17T00:44:01.354Z,0.00
2017-11-17T00:45:54.606Z,0.00
2017-11-17T00:46:54.537Z,0.00
2017-11-17T00:48:47.818Z,0.00
2017-11-17T00:49:47.731Z,0.00
2017-11-17T00:51:41.032Z,0.00
2017-11-17T00:52:40.962Z,0.00
2017-11-17T00:54:34.242Z,0.00
2017-11-17T00:55:34.158Z,0.00
2017-11-17T00:57:27.443Z,0.00
2017-11-17T00:58:27.352Z,0.00
2017-11-17T01:00:20.612Z,0.00
2017-11-17T01:01:20.547Z,0.00
2017-11-17T01:03:13.828Z,0.00
2017-11-17T01:04:13.742Z,0.00
2017-11-17T01:06:06.999Z,0.00
2017-11-17T01:07:06.930Z,0.00
2017-11-17T01:09:00.239Z,0.00
2017-11-17T01:10:00.114Z,0.00
2017-11-17T01:11:53.377Z,0.00
2017-11-17T01:12:53.308Z,0.00
2017-11-17T01:14:46.586Z,0.00
2017-11-17T01:15:46.501Z,0.00
2017-11-17T01:17:39.788Z,0.00
2017-11-17T01:18:39.690Z,0.00
2017-11-17T01:20:32.944Z,0.00
2017-11-17T01:21:32.874Z,0.00
2017-11-17T01:23:26.153Z,0.00
2017-11-17T01:24:26.072Z,0.00
2017-11-17T01:26:19.374Z,0.00
2017-11-17T01:27:19.363Z,0.00
2017-11-17T01:29:12.823Z,0.00
2017-11-17T01:30:12.563Z,0.00
2017-11-17T01:32:05.845Z,0.00
2017-11-17T01:33:05.846Z,0.00
2017-11-17T01:34:59.985Z,0.00
2017-11-17T01:35:59.845Z,0.00
2017-11-17T01:37:53.182Z,0.00
2017-11-17T01:38:53.029Z,0.00
2017-11-17T01:40:46.376Z,0.00
2017-11-17T01:41:46.309Z,0.00
2017-11-17T01:43:39.636Z,0.00
2017-11-17T01:44:39.551Z,0.00
2017-11-17T01:46:32.759Z,0.00
2017-11-17T01:47:32.692Z,0.00
2017-11-17T01:49:25.967Z,0.00
2017-11-17T01:50:25.876Z,0.00
2017-11-17T01:52:19.139Z,0.00
2017-11-17T01:53:19.075Z,0.00
2017-11-17T01:55:12.393Z,0.00
2017-11-17T01:56:12.306Z,0.00
2017-11-17T01:58:05.584Z,0.00
2017-11-17T01:59:05.495Z,0.00
2017-11-17T02:00:58.760Z,0.00
2017-11-17T02:01:58.695Z,0.00
2017-11-17T02:03:51.974Z,0.00
2017-11-17T02:04:51.886Z,0.00
2017-11-17T02:06:45.146Z,0.00
2017-11-17T02:07:45.079Z,0.00
2017-11-17T02:09:38.395Z,0.00
2017-11-17T02:10:38.302Z,0.00
2017-11-17T02:12:31.572Z,0.00
2017-11-17T02:13:31.500Z,0.00
2017-11-17T02:15:24.779Z,0.00
2017-11-17T02:16:24.694Z,0.00
2017-11-17T02:18:17.977Z,0.00
2017-11-17T02:19:17.887Z,0.00
2017-11-17T02:21:11.147Z,0.00
2017-11-17T02:22:11.080Z,0.00
2017-11-17T02:24:04.397Z,0.00
2017-11-17T02:25:04.302Z,0.00
2017-11-17T02:26:57.568Z,0.00
2017-11-17T02:27:57.499Z,0.00
2017-11-17T02:29:50.780Z,0.00
2017-11-17T02:30:50.695Z,0.00
2017-11-17T02:32:43.958Z,0.00
2017-11-17T02:33:43.885Z,0.00
2017-11-17T02:35:37.165Z,0.00
2017-11-17T02:36:37.076Z,0.00
2017-11-17T02:38:30.451Z,0.00
2017-11-17T02:39:30.302Z,0.00
2017-11-17T02:41:23.563Z,0.00
2017-11-17T02:42:23.547Z,0.00
2017-11-17T02:44:16.773Z,0.00
2017-11-17T02:45:16.689Z,0.00
2017-11-17T02:47:09.950Z,0.00
2017-11-17T02:48:09.881Z,0.00
2017-11-17T02:50:03.201Z,0.00
2017-11-17T02:51:03.070Z,0.00
2017-11-17T02:52:56.404Z,0.00
2017-11-17T02:53:56.302Z,0.00
2017-11-17T02:55:50.554Z,0.00
2017-11-17T02:56:50.484Z,0.00
2017-11-17T02:58:43.837Z,0.00
2017-11-17T02:59:43.748Z,0.00
2017-11-17T03:01:37.008Z,0.00
2017-11-17T03:02:36.937Z,0.00
2017-11-17T03:04:30.220Z,0.00
2017-11-17T03:05:30.129Z,0.00
2017-11-17T03:07:23.389Z,0.00
2017-11-17T03:08:23.322Z,0.00
2017-11-17T03:10:16.620Z,0.00
2017-11-17T03:11:16.530Z,0.00
2017-11-17T03:13:09.872Z,0.00
2017-11-17T03:14:09.780Z,0.00
2017-11-17T03:16:02.575Z,0.00
2017-11-17T03:17:02.503Z,0.00
2017-11-17T03:18:55.373Z,0.00
2017-11-17T03:19:55.225Z,0.00
2017-11-17T03:21:48.482Z,0.00
2017-11-17T03:22:48.414Z,0.00
2017-11-17T03:24:41.690Z,0.00
2017-11-17T03:25:41.603Z,0.00
2017-11-17T03:27:34.865Z,0.00
2017-11-17T03:28:34.795Z,0.00
2017-11-17T03:30:28.082Z,0.00
2017-11-17T03:31:27.983Z,0.00
2017-11-17T03:33:21.266Z,0.00
2017-11-17T03:34:21.175Z,0.00
2017-11-17T03:36:14.433Z,0.00
2017-11-17T03:37:14.365Z,0.00
2017-11-17T03:39:07.635Z,0.00
2017-11-17T03:40:07.547Z,0.00
2017-11-17T03:42:00.803Z,0.00
2017-11-17T03:43:00.734Z,0.00
2017-11-17T03:44:54.084Z,0.00
2017-11-17T03:45:53.996Z,0.00
2017-11-17T03:47:48.244Z,0.00
2017-11-17T03:48:48.170Z,0.00
2017-11-17T03:50:41.461Z,0.00
2017-11-17T03:51:41.363Z,0.00
2017-11-17T03:53:34.639Z,0.00
2017-11-17T03:54:34.553Z,0.00
2017-11-17T03:56:27.811Z,0.00
2017-11-17T03:57:27.741Z,0.00
2017-11-17T03:59:21.023Z,0.00
2017-11-17T04:00:20.922Z,0.00
2017-11-17T04:02:14.179Z,0.00
2017-11-17T04:03:14.111Z,0.00
2017-11-17T04:05:07.413Z,0.00
2017-11-17T04:06:07.325Z,0.00
2017-11-17T04:08:00.585Z,0.00
2017-11-17T04:09:00.514Z,0.00
2017-11-17T04:10:53.794Z,0.00
2017-11-17T04:11:53.705Z,0.00
2017-11-17T04:13:46.981Z,0.00
2017-11-17T04:14:46.894Z,0.00
2017-11-17T04:16:40.151Z,0.00
2017-11-17T04:17:40.081Z,0.00
2017-11-17T04:19:33.388Z,0.00
2017-11-17T04:20:33.302Z,0.00
2017-11-17T04:22:26.558Z,0.00
2017-11-17T04:23:26.490Z,0.00
2017-11-17T04:25:19.767Z,0.00
2017-11-17T04:26:19.678Z,0.00
2017-11-17T04:28:12.937Z,0.00
2017-11-17T04:29:12.866Z,0.00
2017-11-17T04:31:06.141Z,0.00
2017-11-17T04:32:06.055Z,0.00
2017-11-17T04:33:59.389Z,0.00
2017-11-17T04:34:59.301Z,0.00
2017-11-17T04:36:52.557Z,0.00
2017-11-17T04:37:52.491Z,0.00
2017-11-17T04:39:45.756Z,0.00
2017-11-17T04:40:45.671Z,0.00
2017-11-17T04:42:38.928Z,0.00
2017-11-17T04:43:38.859Z,0.00
2017-11-17T04:45:32.136Z,0.00
2017-11-17T04:46:32.048Z,0.00
2017-11-17T04:48:25.375Z,0.00
2017-11-17T04:49:25.300Z,0.00
2017-11-17T04:51:18.575Z,0.00
2017-11-17T04:52:18.490Z,0.00
2017-11-17T04:54:11.772Z,0.00
2017-11-17T04:55:11.681Z,0.00
2017-11-17T04:57:04.939Z,0.00
2017-11-17T04:58:04.902Z,0.00
2017-11-17T04:59:58.145Z,0.00
2017-11-17T05:00:58.058Z,0.00
2017-11-17T05:02:51.373Z,0.00
2017-11-17T05:03:51.304Z,0.00
2017-11-17T05:05:44.576Z,0.00
2017-11-17T05:06:44.490Z,0.00
2017-11-17T05:08:37.756Z,0.00
2017-11-17T05:09:37.687Z,0.00
2017-11-17T05:11:31.051Z,0.00
2017-11-17T05:12:30.873Z,0.00
2017-11-17T05:14:24.149Z,4.00
2017-11-17T05:15:24.061Z,0.00
2017-11-17T05:17:17.372Z,0.00
2017-11-17T05:18:17.302Z,0.00
2017-11-17T05:20:10.604Z,0.00
2017-11-17T05:21:10.489Z,0.00
2017-11-17T05:23:03.747Z,0.00
2017-11-17T05:24:03.677Z,0.00
2017-11-17T05:25:56.953Z,0.00
2017-11-17T05:26:56.865Z,0.00
2017-11-17T05:28:50.121Z,0.00
2017-11-17T05:29:50.052Z,0.00
2017-11-17T05:31:43.391Z,0.00
2017-11-17T05:32:43.303Z,0.00
2017-11-17T05:34:36.574Z,0.00
2017-11-17T05:35:36.490Z,0.00
2017-11-17T05:37:30.748Z,0.00
2017-11-17T05:38:30.671Z,0.00
2017-11-17T05:40:23.950Z,0.00
2017-11-17T05:41:23.858Z,0.00
2017-11-17T05:43:17.117Z,0.00
2017-11-17T05:44:17.048Z,0.00
2017-11-17T05:46:10.326Z,0.00
2017-11-17T05:47:10.237Z,0.00
2017-11-17T05:49:03.485Z,0.00
2017-11-17T05:50:03.415Z,0.00
2017-11-17T05:51:56.705Z,0.00
2017-11-17T05:52:56.602Z,0.00
2017-11-17T05:54:49.878Z,0.00
2017-11-17T05:55:49.790Z,0.00
2017-11-17T05:57:43.045Z,0.00
2017-11-17T05:58:42.970Z,0.00
2017-11-17T06:00:36.250Z,0.00
2017-11-17T06:01:36.160Z,0.00
2017-11-17T06:03:29.420Z,0.00
2017-11-17T06:04:29.349Z,0.00
2017-11-17T06:06:22.640Z,0.00
2017-11-17T06:07:22.554Z,0.00
2017-11-17T06:09:15.796Z,0.00
2017-11-17T06:10:15.725Z,0.00
2017-11-17T06:12:09.004Z,0.00
2017-11-17T06:13:08.913Z,0.00
2017-11-17T06:15:02.188Z,0.00
2017-11-17T06:16:02.100Z,0.00
2017-11-17T06:17:55.357Z,0.00
2017-11-17T06:18:55.303Z,4.00
2017-11-17T06:20:48.559Z,4.00
2017-11-17T06:21:48.472Z,4.00
2017-11-17T06:23:41.727Z,0.00
2017-11-17T06:24:41.665Z,4.00
2017-11-17T06:26:34.931Z,8.00
2017-11-17T06:27:34.858Z,4.00
2017-11-17T06:29:28.100Z,8.00
2017-11-17T06:30:28.032Z,8.00
2017-11-17T06:32:21.311Z,12.00
2017-11-17T06:33:21.222Z,16.00
2017-11-17T06:35:14.543Z,20.00
2017-11-17T06:36:14.406Z,20.00
2017-11-17T06:38:07.688Z,32.00
2017-11-17T06:39:07.612Z,32.00
2017-11-17T06:41:00.888Z,44.00
2017-11-17T06:42:00.801Z,48.00
2017-11-17T06:43:54.054Z,60.00
2017-11-17T06:44:53.984Z,68.00
2017-11-17T06:46:47.257Z,84.00
2017-11-17T06:47:47.170Z,92.00
2017-11-17T06:49:40.440Z,112.00
2017-11-17T06:50:40.347Z,120.00
2017-11-17T06:52:33.625Z,140.00
2017-11-17T06:53:33.536Z,156.00
2017-11-17T06:55:26.875Z,176.00
2017-11-17T06:56:26.721Z,188.00
2017-11-17T06:58:19.974Z,216.00
2017-11-17T06:59:19.907Z,228.00
2017-11-17T07:01:13.186Z,260.00
2017-11-17T07:02:13.091Z,272.00
2017-11-17T07:04:06.374Z,300.00
2017-11-17T07:05:06.302Z,320.00
2017-11-17T07:06:59.580Z,352.00
2017-11-17T07:07:59.489Z,368.00
2017-11-17T07:09:52.749Z,404.00
2017-11-17T07:10:52.683Z,420.00
2017-11-17T07:12:45.952Z,456.00
2017-11-17T07:13:45.863Z,476.00
2017-11-17T07:15:39.131Z,508.00
2017-11-17T07:16:39.044Z,524.00
2017-11-17T07:18:32.373Z,560.00
2017-11-17T07:19:32.301Z,580.00
2017-11-17T07:21:25.575Z,612.00
2017-11-17T07:22:25.488Z,632.00
2017-11-17T07:24:18.742Z,664.00
2017-11-17T07:25:18.674Z,684.00
2017-11-17T07:27:11.946Z,720.00
2017-11-17T07:28:11.858Z,736.00
2017-11-17T07:30:05.116Z,768.00
2017-11-17T07:31:05.049Z,788.00
2017-11-17T07:32:58.391Z,820.00
2017-11-17T07:33:58.306Z,836.00
2017-11-17T07:35:51.576Z,868.00
2017-11-17T07:36:51.486Z,884.00
2017-11-17T07:38:44.742Z,916.00
2017-11-17T07:39:44.674Z,932.00
2017-11-17T07:41:37.946Z,964.00
2017-11-17T07:42:37.855Z,984.00
2017-11-17T07:44:31.116Z,1012.00
2017-11-17T07:45:31.044Z,1032.00
2017-11-17T07:47:24.399Z,1064.00
2017-11-17T07:48:24.301Z,1088.00
2017-11-17T07:50:17.557Z,1156.00
2017-11-17T07:51:17.480Z,1324.00
2017-11-17T07:53:10.746Z,1344.00
2017-11-17T07:54:10.658Z,1340.00
2017-11-17T07:56:03.918Z,1528.00
2017-11-17T07:57:03.829Z,1580.00
2017-11-17T07:58:57.153Z,1672.00
2017-11-17T07:59:57.006Z,1812.00
2017-11-17T08:01:50.273Z,1764.00
2017-11-17T08:02:50.181Z,1828.00
2017-11-17T08:04:43.424Z,2056.00
2017-11-17T08:05:43.356Z,2176.00
2017-11-17T08:07:36.632Z,2288.00
2017-11-17T08:08:36.547Z,2324.00
2017-11-17T08:10:29.810Z,2408.00
2017-11-17T08:11:29.726Z,2452.00
2017-11-17T08:13:22.972Z,2532.00
2017-11-17T08:14:22.907Z,2568.00
2017-11-17T08:16:17.169Z,2628.00
2017-11-17T08:17:17.082Z,2664.00
2017-11-17T08:19:10.376Z,2728.00
2017-11-17T08:20:10.310Z,2768.00
2017-11-17T08:22:03.589Z,2824.00
2017-11-17T08:23:03.503Z,2856.00
2017-11-17T08:24:57.754Z,2912.00
2017-11-17T08:25:57.697Z,2936.00
2017-11-17T08:27:50.956Z,2984.00
2017-11-17T08:28:50.877Z,3012.00
2017-11-17T08:30:44.155Z,3064.00
2017-11-17T08:31:44.070Z,3092.00
2017-11-17T08:33:37.326Z,3148.00
2017-11-17T08:34:37.259Z,3180.00
2017-11-17T08:36:30.533Z,3236.00
2017-11-17T08:37:30.448Z,3272.00
2017-11-17T08:39:23.709Z,3364.00
2017-11-17T08:40:23.646Z,3428.00
2017-11-17T08:42:16.918Z,3624.00
2017-11-17T08:43:16.835Z,3816.00
2017-11-17T08:45:10.091Z,4200.00
2017-11-17T08:46:10.025Z,4272.00
2017-11-17T08:48:03.302Z,4316.00
2017-11-17T08:49:03.217Z,4368.00
2017-11-17T08:50:56.495Z,4524.00
2017-11-17T08:51:56.409Z,4584.00
2017-11-17T08:53:49.668Z,4616.00
2017-11-17T08:54:49.591Z,4548.00
2017-11-17T08:56:42.876Z,4504.00
2017-11-17T08:57:42.791Z,4448.00
2017-11-17T08:59:36.043Z,4916.00
2017-11-17T09:00:35.987Z,6096.00
2017-11-17T09:02:29.270Z,7540.00
2017-11-17T09:03:29.185Z,8424.00
2017-11-17T09:05:22.455Z,8964.00
2017-11-17T09:06:22.392Z,8792.00
2017-11-17T09:08:15.673Z,7412.00
2017-11-17T09:09:15.586Z,6156.00
2017-11-17T09:11:08.891Z,5876.00
2017-11-17T09:12:08.782Z,6980.00
2017-11-17T09:14:02.045Z,8248.00
2017-11-17T09:15:01.982Z,7392.00
2017-11-17T09:16:55.257Z,6348.00
2017-11-17T09:17:55.176Z,5632.00
2017-11-17T09:19:48.601Z,5160.00
2017-11-17T09:20:48.543Z,5192.00
2017-11-17T09:22:41.823Z,5316.00
2017-11-17T09:23:41.740Z,5436.00
2017-11-17T09:25:35.006Z,5308.00
2017-11-17T09:26:34.941Z,5596.00
2017-11-17T09:28:28.235Z,6292.00
2017-11-17T09:29:28.153Z,6540.00
2017-11-17T09:31:21.439Z,6072.00
2017-11-17T09:32:21.362Z,6108.00
2017-11-17T09:34:14.624Z,6064.00
2017-11-17T09:35:14.561Z,6108.00
2017-11-17T09:37:07.847Z,6184.00
2017-11-17T09:38:07.765Z,5932.00
2017-11-17T09:40:01.044Z,5792.00
2017-11-17T09:41:00.978Z,5840.00
2017-11-17T09:42:54.264Z,6040.00
2017-11-17T09:43:54.188Z,6068.00
2017-11-17T09:45:47.449Z,6048.00
2017-11-17T09:46:47.389Z,5904.00
2017-11-17T09:48:41.670Z,5860.00
2017-11-17T09:49:41.592Z,5876.00
2017-11-17T09:51:34.859Z,5864.00
2017-11-17T09:52:34.794Z,5852.00
2017-11-17T09:54:28.090Z,5844.00
2017-11-17T09:55:28.008Z,5916.00
2017-11-17T09:57:21.299Z,6056.00
2017-11-17T09:58:21.223Z,6024.00
2017-11-17T10:00:14.498Z,6012.00
2017-11-17T10:01:14.437Z,6096.00
2017-11-17T10:03:07.733Z,6124.00
2017-11-17T10:04:07.652Z,6096.00
2017-11-17T10:06:00.924Z,6164.00
2017-11-17T10:07:00.862Z,6156.00
2017-11-17T10:08:54.159Z,6124.00
2017-11-17T10:09:54.078Z,6216.00
2017-11-17T10:11:47.360Z,6116.00
2017-11-17T10:12:47.291Z,6064.00
2017-11-17T10:14:40.573Z,6104.00
2017-11-17T10:15:40.493Z,6040.00
2017-11-17T10:17:33.791Z,6016.00
2017-11-17T10:18:33.710Z,6044.00
2017-11-17T10:20:26.987Z,6048.00
2017-11-17T10:21:26.927Z,6012.00
2017-11-17T10:23:20.223Z,5984.00
2017-11-17T10:24:20.144Z,5984.00
2017-11-17T10:26:13.409Z,5912.00
2017-11-17T10:27:13.346Z,5936.00
2017-11-17T10:29:06.632Z,5940.00
2017-11-17T10:30:06.580Z,5936.00
2017-11-17T10:31:59.821Z,5952.00
2017-11-17T10:32:59.761Z,5944.00
2017-11-17T10:34:53.040Z,5924.00
2017-11-17T10:35:52.962Z,5904.00
2017-11-17T10:37:46.244Z,5896.00
2017-11-17T10:38:46.164Z,5764.00
2017-11-17T10:40:39.960Z,5716.00
2017-11-17T10:41:39.360Z,5660.00
2017-11-17T10:43:32.647Z,5484.00
2017-11-17T10:44:32.561Z,5284.00
2017-11-17T10:46:25.824Z,5092.00
2017-11-17T10:47:25.761Z,5044.00
2017-11-17T10:49:19.049Z,5028.00
2017-11-17T10:50:18.955Z,5004.00
2017-11-17T10:52:12.222Z,4948.00
2017-11-17T10:53:12.157Z,4952.00
2017-11-17T10:55:05.433Z,4956.00
2017-11-17T10:56:05.353Z,4968.00
2017-11-17T10:57:58.629Z,4956.00
2017-11-17T10:58:58.549Z,4996.00
2017-11-17T11:00:51.840Z,4992.00
2017-11-17T11:01:51.752Z,4964.00
2017-11-17T11:03:45.028Z,4896.00
2017-11-17T11:04:44.947Z,4844.00
2017-11-17T11:06:38.202Z,4772.00
2017-11-17T11:07:38.133Z,4780.00
2017-11-17T11:09:31.413Z,4760.00
2017-11-17T11:10:31.328Z,4756.00
2017-11-17T11:12:24.591Z,4704.00
2017-11-17T11:13:24.527Z,4684.00
2017-11-17T11:15:17.803Z,4636.00
2017-11-17T11:16:17.723Z,4588.00
2017-11-17T11:18:11.061Z,4564.00
2017-11-17T11:19:10.916Z,4564.00
2017-11-17T11:21:04.207Z,4468.00
2017-11-17T11:22:04.109Z,4464.00
2017-11-17T11:23:57.382Z,4468.00
2017-11-17T11:24:57.298Z,4508.00
2017-11-17T11:26:50.566Z,4456.00
2017-11-17T11:27:50.499Z,4484.00
2017-11-17T11:29:43.783Z,4364.00
2017-11-17T11:30:43.692Z,4352.00
2017-11-17T11:32:36.945Z,4272.00
2017-11-17T11:33:36.876Z,4248.00
2017-11-17T11:35:30.268Z,4396.00
2017-11-17T11:36:30.075Z,4444.00
2017-11-17T11:38:23.393Z,4380.00
2017-11-17T11:39:23.308Z,4212.00
2017-11-17T11:41:16.567Z,4136.00
2017-11-17T11:42:16.497Z,4156.00
2017-11-17T11:44:09.801Z,4184.00
2017-11-17T11:45:09.717Z,4124.00
2017-11-17T11:47:02.971Z,3984.00
2017-11-17T11:48:02.904Z,3916.00
2017-11-17T11:49:56.175Z,3900.00
2017-11-17T11:50:56.087Z,3944.00
2017-11-17T11:52:49.374Z,4040.00
2017-11-17T11:53:49.306Z,4136.00
2017-11-17T11:55:42.578Z,4256.00
2017-11-17T11:56:42.492Z,4256.00
2017-11-17T11:58:35.905Z,4160.00
2017-11-17T11:59:35.681Z,4036.00
2017-11-17T12:01:28.934Z,3832.00
2017-11-17T12:02:28.888Z,3796.00
2017-11-17T12:04:22.151Z,3924.00
2017-11-17T12:05:22.068Z,4084.00
2017-11-17T12:07:15.376Z,3936.00
2017-11-17T12:08:15.306Z,3888.00
2017-11-17T12:10:08.581Z,3788.00
2017-11-17T12:11:08.494Z,3772.00
2017-11-17T12:13:01.746Z,3840.00
2017-11-17T12:14:01.683Z,3816.00
2017-11-17T12:15:54.956Z,4052.00
2017-11-17T12:16:54.866Z,4044.00
2017-11-17T12:18:48.144Z,4028.00
2017-11-17T12:19:48.076Z,4036.00
2017-11-17T12:21:41.318Z,4180.00
2017-11-17T12:22:41.246Z,4184.00
2017-11-17T12:24:34.534Z,4368.00
2017-11-17T12:25:34.447Z,4428.00
2017-11-17T12:27:27.704Z,4564.00
2017-11-17T12:28:27.647Z,4592.00
2017-11-17T12:30:20.911Z,3228.00
2017-11-17T12:31:20.828Z,3120.00
2017-11-17T12:33:14.082Z,3620.00
2017-11-17T12:34:14.014Z,4132.00
2017-11-17T12:36:07.296Z,2900.00
2017-11-17T12:37:07.210Z,2896.00
2017-11-17T12:39:00.600Z,3172.00
2017-11-17T12:40:00.425Z,3788.00
2017-11-17T12:41:53.656Z,4352.00
2017-11-17T12:42:53.591Z,4336.00
2017-11-17T12:44:46.862Z,4552.00
2017-11-17T12:45:46.777Z,3796.00
2017-11-17T12:47:40.034Z,4292.00
2017-11-17T12:48:39.963Z,4164.00
2017-11-17T12:50:33.238Z,4068.00
2017-11-17T12:51:33.156Z,3176.00
2017-11-17T12:53:26.406Z,3540.00
2017-11-17T12:54:26.340Z,3088.00
2017-11-17T12:56:19.614Z,3236.00
2017-11-17T12:57:19.527Z,3200.00
2017-11-17T12:59:12.795Z,3088.00
2017-11-17T13:00:12.708Z,3032.00
2017-11-17T13:02:05.960Z,3036.00
2017-11-17T13:03:05.894Z,3036.00
2017-11-17T13:04:59.165Z,2960.00
2017-11-17T13:05:59.081Z,2928.00
2017-11-17T13:07:52.372Z,2912.00
2017-11-17T13:08:52.299Z,2908.00
2017-11-17T13:10:45.695Z,2888.00
2017-11-17T13:11:45.490Z,2900.00
2017-11-17T13:13:38.776Z,2964.00
2017-11-17T13:14:38.713Z,3044.00
2017-11-17T13:16:31.996Z,3248.00
2017-11-17T13:17:31.909Z,3360.00
2017-11-17T13:19:25.183Z,3548.00
2017-11-17T13:20:25.096Z,3588.00
2017-11-17T13:22:18.352Z,3644.00
2017-11-17T13:23:18.285Z,3664.00
2017-11-17T13:25:11.569Z,3732.00
2017-11-17T13:26:11.487Z,3728.00
2017-11-17T13:28:04.752Z,3780.00
2017-11-17T13:29:04.683Z,3780.00
2017-11-17T13:30:57.966Z,3744.00
2017-11-17T13:31:57.884Z,3748.00
2017-11-17T13:33:51.142Z,3616.00
2017-11-17T13:34:51.088Z,3476.00
2017-11-17T13:36:44.365Z,3268.00
2017-11-17T13:37:44.283Z,2948.00
2017-11-17T13:39:37.566Z,3012.00
2017-11-17T13:40:37.466Z,3076.00
2017-11-17T13:42:30.739Z,2360.00
2017-11-17T13:43:30.672Z,2532.00
2017-11-17T13:45:23.956Z,2376.00
2017-11-17T13:46:23.874Z,2304.00
2017-11-17T13:48:17.129Z,1940.00
2017-11-17T13:49:17.048Z,1860.00
2017-11-17T13:51:10.349Z,1852.00
2017-11-17T13:52:10.259Z,1856.00
2017-11-17T13:54:03.525Z,1872.00
2017-11-17T13:55:03.457Z,2376.00
2017-11-17T13:56:56.746Z,2220.00
2017-11-17T13:57:56.654Z,2180.00
2017-11-17T13:59:49.947Z,1628.00
2017-11-17T14:00:49.840Z,1588.00
2017-11-17T14:02:43.095Z,1572.00
2017-11-17T14:03:43.026Z,1680.00
2017-11-17T14:05:36.394Z,2024.00
2017-11-17T14:06:36.303Z,2000.00
2017-11-17T14:08:29.562Z,1536.00
2017-11-17T14:09:29.500Z,1576.00
2017-11-17T14:11:22.782Z,1516.00
2017-11-17T14:12:22.696Z,1480.00
2017-11-17T14:14:15.961Z,1432.00
2017-11-17T14:15:15.891Z,1412.00
2017-11-17T14:17:09.177Z,1364.00
2017-11-17T14:18:09.089Z,1344.00
2017-11-17T14:20:02.397Z,1312.00
2017-11-17T14:21:02.300Z,1304.00
2017-11-17T14:22:55.565Z,1296.00
2017-11-17T14:23:55.497Z,1296.00
2017-11-17T14:25:48.766Z,1292.00
2017-11-17T14:26:48.681Z,1296.00
2017-11-17T14:28:41.945Z,1324.00
2017-11-17T14:29:41.879Z,1508.00
2017-11-17T14:31:35.150Z,1520.00
2017-11-17T14:32:35.063Z,1508.00
2017-11-17T14:34:28.371Z,1472.00
2017-11-17T14:35:28.302Z,1452.00
2017-11-17T14:37:21.585Z,1384.00
2017-11-17T14:38:21.498Z,1352.00
2017-11-17T14:40:14.782Z,1300.00
2017-11-17T14:41:14.697Z,1272.00
2017-11-17T14:43:07.952Z,1220.00
2017-11-17T14:44:07.885Z,1196.00
2017-11-17T14:46:01.165Z,1156.00
2017-11-17T14:47:01.081Z,1140.00
2017-11-17T14:48:54.344Z,1112.00
2017-11-17T14:49:54.275Z,1096.00
2017-11-17T14:51:47.557Z,1072.00
2017-11-17T14:52:47.470Z,1052.00
2017-11-17T14:54:40.733Z,992.00
2017-11-17T14:55:40.691Z,960.00
2017-11-17T14:57:33.941Z,908.00
2017-11-17T14:58:33.859Z,896.00
2017-11-17T15:00:27.140Z,860.00
2017-11-17T15:01:27.057Z,812.00
2017-11-17T15:03:20.371Z,760.00
2017-11-17T15:04:20.302Z,744.00
2017-11-17T15:06:14.430Z,684.00
2017-11-17T15:07:14.344Z,668.00
2017-11-17T15:09:07.598Z,632.00
2017-11-17T15:10:07.530Z,612.00
2017-11-17T15:12:00.809Z,560.00
2017-11-17T15:13:00.722Z,536.00
2017-11-17T15:14:53.994Z,504.00
2017-11-17T15:15:53.918Z,488.00
2017-11-17T15:17:47.198Z,452.00
2017-11-17T15:18:47.100Z,432.00
2017-11-17T15:20:40.497Z,380.00
2017-11-17T15:21:40.295Z,348.00
2017-11-17T15:23:33.558Z,292.00
2017-11-17T15:24:33.491Z,268.00
2017-11-17T15:26:26.772Z,232.00
2017-11-17T15:27:26.682Z,224.00
2017-11-17T15:29:19.936Z,208.00
2017-11-17T15:30:19.872Z,196.00
2017-11-17T15:32:13.150Z,172.00
2017-11-17T15:33:13.064Z,156.00
2017-11-17T15:35:06.360Z,132.00
2017-11-17T15:36:06.291Z,116.00
2017-11-17T15:37:59.568Z,100.00
2017-11-17T15:38:59.485Z,92.00
2017-11-17T15:40:52.766Z,72.00
2017-11-17T15:41:52.676Z,60.00
2017-11-17T15:43:45.939Z,44.00
2017-11-17T15:44:45.869Z,36.00
2017-11-17T15:46:39.144Z,28.00
2017-11-17T15:47:39.061Z,24.00
2017-11-17T15:49:32.356Z,16.00
2017-11-17T15:50:32.300Z,12.00
2017-11-17T15:52:25.574Z,12.00
2017-11-17T15:53:25.485Z,8.00
2017-11-17T15:55:18.746Z,8.00
2017-11-17T15:56:18.678Z,8.00
2017-11-17T15:58:11.976Z,4.00
2017-11-17T15:59:11.864Z,4.00
2017-11-17T16:01:05.152Z,8.00
2017-11-17T16:02:05.074Z,4.00
2017-11-17T16:03:58.373Z,4.00
2017-11-17T16:04:58.303Z,4.00
2017-11-17T16:06:51.580Z,0.00
2017-11-17T16:07:51.491Z,4.00
2017-11-17T16:09:44.749Z,4.00
2017-11-17T16:10:44.680Z,4.00
2017-11-17T16:12:37.962Z,4.00
2017-11-17T16:13:37.876Z,0.00
2017-11-17T16:15:31.136Z,0.00
2017-11-17T16:16:31.067Z,0.00
2017-11-17T16:18:24.388Z,0.00
2017-11-17T16:19:24.301Z,0.00
2017-11-17T16:21:17.580Z,0.00
2017-11-17T16:22:17.494Z,0.00
2017-11-17T16:24:10.759Z,0.00
2017-11-17T16:25:10.691Z,0.00
2017-11-17T16:27:03.969Z,0.00
2017-11-17T16:28:03.876Z,0.00
2017-11-17T16:29:57.149Z,0.00
2017-11-17T16:30:57.078Z,0.00
2017-11-17T16:32:50.400Z,0.00
2017-11-17T16:33:50.301Z,0.00
2017-11-17T16:35:43.559Z,0.00
2017-11-17T16:36:43.492Z,4.00
2017-11-17T16:38:36.774Z,4.00
2017-11-17T16:39:36.683Z,0.00
2017-11-17T16:41:29.957Z,0.00
2017-11-17T16:42:29.874Z,0.00
2017-11-17T16:44:23.135Z,0.00
2017-11-17T16:45:23.089Z,0.00
2017-11-17T16:47:16.390Z,0.00
2017-11-17T16:48:16.301Z,0.00
2017-11-17T16:50:09.566Z,0.00
2017-11-17T16:51:09.492Z,0.00
2017-11-17T16:53:02.771Z,0.00
2017-11-17T16:54:02.682Z,0.00
2017-11-17T16:55:55.963Z,0.00
2017-11-17T16:56:55.873Z,0.00
2017-11-17T16:58:49.144Z,0.00
2017-11-17T16:59:49.052Z,4.00
2017-11-17T17:01:42.334Z,0.00
2017-11-17T17:02:42.240Z,4.00
2017-11-17T17:04:35.501Z,0.00
2017-11-17T17:05:35.432Z,0.00
2017-11-17T17:07:28.715Z,4.00
2017-11-17T17:08:28.626Z,4.00
2017-11-17T17:10:21.883Z,4.00
2017-11-17T17:11:21.814Z,4.00
2017-11-17T17:13:15.089Z,4.00
2017-11-17T17:14:15.010Z,0.00
2017-11-17T17:16:08.285Z,4.00
2017-11-17T17:17:08.196Z,4.00
2017-11-17T17:19:01.468Z,4.00
2017-11-17T17:20:01.376Z,4.00
2017-11-17T17:21:54.660Z,4.00
2017-11-17T17:22:54.566Z,0.00
2017-11-17T17:24:47.825Z,4.00
2017-11-17T17:25:47.756Z,0.00
2017-11-17T17:27:41.060Z,4.00
2017-11-17T17:28:40.954Z,4.00
2017-11-17T17:30:34.204Z,0.00
2017-11-17T17:31:34.136Z,0.00
2017-11-17T17:33:27.413Z,0.00
2017-11-17T17:34:27.325Z,0.00
2017-11-17T17:36:20.605Z,0.00
2017-11-17T17:37:20.515Z,0.00
2017-11-17T17:39:13.797Z,0.00
2017-11-17T17:40:13.695Z,4.00
2017-11-17T17:42:06.971Z,0.00
2017-11-17T17:43:06.880Z,0.00
2017-11-17T17:45:00.138Z,0.00
2017-11-17T17:46:00.074Z,4.00
2017-11-17T17:47:53.393Z,0.00
2017-11-17T17:48:53.300Z,4.00
2017-11-17T17:50:46.556Z,0.00
2017-11-17T17:51:46.488Z,0.00
2017-11-17T17:53:39.768Z,0.00
2017-11-17T17:54:39.678Z,0.00
2017-11-17T17:56:32.976Z,0.00
2017-11-17T17:57:32.871Z,0.00
2017-11-17T17:59:26.131Z,4.00
2017-11-17T18:00:26.063Z,0.00
2017-11-17T18:02:19.338Z,4.00
2017-11-17T18:03:19.252Z,0.00
2017-11-17T18:05:12.507Z,4.00
2017-11-17T18:06:12.437Z,4.00
2017-11-17T18:08:05.759Z,0.00
2017-11-17T18:09:05.628Z,0.00
2017-11-17T18:10:58.885Z,0.00
2017-11-17T18:11:58.813Z,0.00
2017-11-17T18:13:52.089Z,0.00
2017-11-17T18:14:52.002Z,0.00
2017-11-17T18:16:45.284Z,0.00
2017-11-17T18:17:45.193Z,0.00
2017-11-17T18:19:38.435Z,0.00
2017-11-17T18:20:38.373Z,0.00
2017-11-17T18:22:31.649Z,4.00